Time;durP1;ratioP1;P1;durP2;ratioP2;P2;SDS_P1;SDS_P2;PMS_P1;PMS_P2;Temp;Humidity;BMP_temperature;BMP_pressure;BME280_temperature;BME280_humidity;BME280_pressure;Samples;Min_cycle;Max_cycle;Signal;HPM_P1;HPM_P2
2023/01/25 05:32:38;;;;;;;;;20.25;15.75;;;;;6.55;63.36;103045.56;5045896;27;45477;-80
2023/01/25 05:35:04;;;;;;;;;24.00;20.00;;;;;6.53;63.41;103045.56;5056779;28;45444;-76
2023/01/25 05:37:29;;;;;;;;;22.75;19.25;;;;;6.41;64.01;103021.47;5038806;28;45501;-80
2023/01/25 05:39:55;;;;;;;;;26.50;23.75;;;;;6.29;63.66;103006.31;5038542;28;46052;-78
2023/01/25 05:42:20;;;;;;;;;24.75;19.75;;;;;6.50;63.85;103039.31;5038830;28;45374;-78
2023/01/25 05:44:46;;;;;;;;;22.50;22.50;;;;;6.40;63.51;103015.25;5056546;28;46015;-79
2023/01/25 05:47:13;;;;;;;;;18.75;18.25;;;;;6.50;63.10;103037.53;5038449;28;46150;-78
2023/01/25 05:49:39;;;;;;;;;26.25;23.25;;;;;6.55;63.08;103041.09;5038372;28;48155;-78
2023/01/25 05:52:05;;;;;;;;;20.00;20.00;;;;;6.56;63.52;103039.34;5056740;28;45240;-79
2023/01/25 05:54:30;;;;;;;;;18.25;15.00;;;;;6.46;62.74;103028.59;5056594;28;45518;-79
2023/01/25 05:56:55;;;;;;;;;15.00;15.00;;;;;6.53;62.89;103034.91;5056789;28;45489;-80
2023/01/25 05:59:21;;;;;;;;;19.50;16.75;;;;;6.44;63.00;103019.72;5038178;28;46050;-78
2023/01/25 06:01:46;;;;;;;;;19.50;17.75;;;;;6.40;62.49;103009.03;5055551;28;45157;-77
2023/01/25 06:04:15;;;;;;;;;19.25;18.25;;;;;6.55;62.38;103040.25;5056496;28;45367;-76
2023/01/25 06:06:41;;;;;;;;;14.75;12.25;;;;;6.30;62.52;102993.84;5057857;28;45498;-78
2023/01/25 06:09:07;;;;;;;;;19.75;17.25;;;;;6.46;62.32;103025.94;5060057;28;45598;-77
2023/01/25 06:11:32;;;;;;;;;17.75;13.75;;;;;6.32;62.55;103000.09;5038752;28;45170;-81
2023/01/25 06:13:57;;;;;;;;;19.00;15.00;;;;;6.49;62.40;103030.41;5057776;28;45443;-82
2023/01/25 06:16:23;;;;;;;;;14.50;14.00;;;;;6.55;62.68;103035.78;5038459;28;45961;-77
2023/01/25 06:18:48;;;;;;;;;15.00;14.00;;;;;6.39;62.23;103015.22;5056308;28;46163;-78
2023/01/25 06:21:14;;;;;;;;;18.50;15.75;;;;;6.45;62.08;103024.19;5056187;28;45339;-82
2023/01/25 06:23:39;;;;;;;;;24.50;16.75;;;;;6.56;61.97;103044.66;5057221;28;45434;-83
2023/01/25 06:26:08;;;;;;;;;19.25;17.75;;;;;6.52;62.11;103034.88;5038282;28;46243;-78
2023/01/25 06:28:34;;;;;;;;;17.25;15.25;;;;;6.49;62.19;103030.41;5055807;28;45355;-76
2023/01/25 06:31:17;;;;;;;;;18.75;14.50;;;;;6.47;62.76;103027.72;5044996;28;45464;-77
2023/01/25 06:33:47;;;;;;;;;22.25;22.00;;;;;6.43;62.24;103031.28;5038512;28;45414;-78
2023/01/25 06:36:15;;;;;;;;;25.50;23.00;;;;;6.48;62.85;103031.28;5056628;28;45521;-79
2023/01/25 06:38:41;;;;;;;;;27.25;24.00;;;;;6.42;62.91;103024.16;5056273;28;45957;-80
2023/01/25 06:41:10;;;;;;;;;32.50;24.75;;;;;6.36;63.09;103015.22;5037997;28;45498;-80
2023/01/25 06:43:36;;;;;;;;;19.25;16.25;;;;;6.28;62.91;103003.63;5037609;28;45514;-79
2023/01/25 06:46:04;;;;;;;;;23.00;20.25;;;;;6.36;63.06;103023.22;5056034;28;45560;-77
2023/01/25 06:48:31;;;;;;;;;23.00;18.25;;;;;6.45;62.60;103036.63;5055184;28;46629;-77
2023/01/25 06:50:59;;;;;;;;;31.75;23.75;;;;;6.34;62.70;103015.22;5055679;28;45307;-78
2023/01/25 06:53:26;;;;;;;;;23.25;18.25;;;;;6.26;63.24;102995.63;5055980;28;45476;-78
2023/01/25 06:56:05;;;;;;;;;25.75;19.75;;;;;6.39;63.18;103016.13;5054161;28;45371;-79
2023/01/25 06:58:31;;;;;;;;;27.75;22.00;;;;;6.37;62.95;103006.38;5054330;28;46407;-76
2023/01/25 07:01:21;;;;;;;;;17.00;15.00;;;;;6.39;62.89;103012.56;5055678;28;45460;-78
2023/01/25 07:03:55;;;;;;;;;20.00;16.50;;;;;6.42;63.07;103009.94;5044655;28;45467;-76
2023/01/25 07:06:21;;;;;;;;;23.00;18.00;;;;;6.29;62.49;102995.66;5055461;28;45318;-78
2023/01/25 07:08:47;;;;;;;;;19.75;16.25;;;;;6.36;62.64;103010.78;5052285;28;46306;-77
2023/01/25 07:11:13;;;;;;;;;18.00;18.00;;;;;6.41;61.71;103009.03;5054632;28;45509;-77
2023/01/25 07:13:40;;;;;;;;;17.75;16.25;;;;;6.30;62.29;102996.50;5054845;28;45300;-81
2023/01/25 07:16:10;;;;;;;;;17.25;17.25;;;;;6.34;61.90;102998.34;5055105;28;45219;-77
2023/01/25 07:18:38;;;;;;;;;12.25;12.25;;;;;6.41;62.24;103019.69;5054712;28;46309;-77
2023/01/25 07:21:10;;;;;;;;;17.50;16.00;;;;;6.38;61.75;103018.81;5055019;28;45520;-78
2023/01/25 07:23:37;;;;;;;;;16.00;15.50;;;;;6.32;61.96;103006.31;5055351;28;45402;-76
2023/01/25 07:26:04;;;;;;;;;24.00;22.50;;;;;6.35;61.90;103016.09;5036925;28;45444;-77
2023/01/25 07:28:30;;;;;;;;;25.25;17.50;;;;;6.26;62.04;103016.03;5055051;28;45769;-77
2023/01/25 07:30:56;;;;;;;;;20.75;16.00;;;;;6.23;62.07;103016.00;5054741;28;45496;-78
2023/01/25 07:33:21;;;;;;;;;20.00;17.00;;;;;6.13;61.66;103003.47;5054793;28;45502;-77
2023/01/25 07:35:49;;;;;;;;;22.50;17.75;;;;;6.15;61.94;103013.25;5033152;28;45531;-77
2023/01/25 07:38:16;;;;;;;;;19.75;18.00;;;;;6.08;62.40;103004.34;5029374;28;47363;-78
2023/01/25 07:40:41;;;;;;;;;20.25;17.75;;;;;5.89;62.27;102974.88;5054914;28;45381;-76
2023/01/25 07:43:07;;;;;;;;;22.25;16.50;;;;;5.81;62.16;102958.78;5055021;28;45372;-77
2023/01/25 07:45:32;;;;;;;;;19.00;17.50;;;;;6.13;62.10;103025.66;5041750;28;45385;-76
2023/01/25 07:47:58;;;;;;;;;16.50;14.50;;;;;6.10;62.68;103014.13;5054612;28;45555;-77
2023/01/25 07:50:27;;;;;;;;;21.00;17.75;;;;;6.12;61.98;103018.59;5054643;28;45307;-78
2023/01/25 07:52:53;;;;;;;;;19.50;19.00;;;;;6.12;62.12;103023.91;5054956;28;45347;-77
2023/01/25 07:55:20;;;;;;;;;13.00;10.50;;;;;6.14;61.80;103023.91;5054678;28;45494;-77
2023/01/25 07:57:46;;;;;;;;;19.25;16.25;;;;;6.00;62.02;103008.72;5035903;28;48209;-78
2023/01/25 08:00:13;;;;;;;;;15.75;15.25;;;;;6.02;62.63;103012.28;5054463;28;45375;-77
2023/01/25 08:02:38;;;;;;;;;18.00;15.00;;;;;6.01;62.36;103004.28;5054398;28;45307;-77
2023/01/25 08:05:05;;;;;;;;;25.00;19.00;;;;;6.10;62.42;103023.00;5054182;28;45364;-77
2023/01/25 08:07:30;;;;;;;;;17.75;16.25;;;;;6.07;62.22;103014.97;5036181;28;47520;-78
2023/01/25 08:09:56;;;;;;;;;19.00;19.00;;;;;5.88;62.49;102978.41;5054524;28;45421;-78
2023/01/25 08:12:21;;;;;;;;;25.25;21.00;;;;;6.07;62.28;103015.88;5035617;28;45671;-77
2023/01/25 08:14:48;;;;;;;;;13.50;12.25;;;;;5.88;62.66;102989.06;5040898;28;45313;-77
2023/01/25 08:17:14;;;;;;;;;24.25;21.50;;;;;6.04;62.33;103023.81;5054333;28;46074;-77
2023/01/25 08:19:39;;;;;;;;;21.50;19.00;;;;;5.83;62.70;102986.31;5053790;28;45498;-77
2023/01/25 08:22:07;;;;;;;;;22.75;20.00;;;;;5.92;62.61;103001.53;5052840;28;45485;-79
2023/01/25 08:24:32;;;;;;;;;16.25;16.25;;;;;5.90;62.90;102996.19;5054510;28;45607;-76
2023/01/25 08:26:57;;;;;;;;;20.75;20.25;;;;;5.96;62.59;103004.22;5054373;28;45898;-79
2023/01/25 08:29:23;;;;;;;;;23.00;23.00;;;;;6.07;62.75;103014.97;5054274;28;45299;-77
2023/01/25 08:31:49;;;;;;;;;20.75;18.25;;;;;5.94;62.54;102991.78;5054301;28;45529;-78
2023/01/25 08:34:14;;;;;;;;;21.50;20.50;;;;;6.10;62.85;103017.69;5053902;28;45676;-77
2023/01/25 08:36:39;;;;;;;;;27.50;26.00;;;;;6.08;62.55;103017.66;5054281;28;45486;-77
2023/01/25 08:39:07;;;;;;;;;28.50;25.00;;;;;6.02;62.81;103006.97;5055076;28;45271;-78
2023/01/25 08:41:33;;;;;;;;;23.50;22.25;;;;;6.01;63.19;103005.16;5056888;28;45216;-78
2023/01/25 08:43:59;;;;;;;;;24.75;22.25;;;;;5.92;62.65;102988.22;5048555;28;45533;-77
2023/01/25 08:46:27;;;;;;;;;28.25;25.50;;;;;5.87;62.89;102969.50;5046796;28;46136;-77
2023/01/25 08:48:56;;;;;;;;;30.25;24.25;;;;;5.98;62.66;102978.50;5052381;28;45383;-76
2023/01/25 08:51:23;;;;;;;;;29.00;25.00;;;;;6.11;62.54;102997.25;5053900;28;45518;-78
2023/01/25 08:53:49;;;;;;;;;29.00;27.50;;;;;6.10;62.95;103003.47;5054587;28;45336;-76
2023/01/25 08:56:16;;;;;;;;;31.00;25.75;;;;;5.91;62.65;102970.47;5039189;28;48043;-77
2023/01/25 08:58:44;;;;;;;;;15.50;10.75;;;;;6.11;62.68;103000.81;5039219;28;45945;-77
2023/01/25 09:01:12;;;;;;;;;32.00;24.75;;;;;6.11;62.63;102998.16;5057628;28;45246;-76
2023/01/25 09:03:40;;;;;;;;;28.75;25.50;;;;;5.91;62.45;102970.47;5057174;28;45442;-77
2023/01/25 09:06:06;;;;;;;;;41.25;30.25;;;;;6.05;62.68;102991.00;5057280;28;46176;-77
2023/01/25 09:08:32;;;;;;;;;30.50;29.25;;;;;6.02;62.87;102983.00;5057452;28;45310;-76
2023/01/25 09:11:05;;;;;;;;;28.25;24.00;;;;;6.15;62.89;103001.72;5057790;28;45539;-77
2023/01/25 09:13:31;;;;;;;;;26.75;26.00;;;;;6.04;62.92;102980.31;5038491;28;47300;-78
2023/01/25 09:16:08;;;;;;;;;26.75;23.25;;;;;6.02;62.91;102985.66;5057120;28;46323;-77
2023/01/25 09:18:38;;;;;;;;;32.75;25.50;;;;;5.99;63.00;102984.72;5058615;28;45393;-77
2023/01/25 09:21:09;;;;;;;;;24.25;20.75;;;;;6.04;63.06;102978.56;5039663;28;45509;-77
2023/01/25 09:23:35;;;;;;;;;32.75;28.25;;;;;5.79;62.76;102938.34;5057580;28;45555;-77
2023/01/25 09:26:01;;;;;;;;;31.50;27.75;;;;;6.07;63.00;102991.00;5057523;28;46349;-79
2023/01/25 09:28:28;;;;;;;;;29.50;28.75;;;;;6.11;63.02;103003.50;5059132;28;45419;-77
2023/01/25 09:30:59;;;;;;;;;25.50;25.50;;;;;6.04;62.87;102989.19;5057282;28;45429;-77
2023/01/25 09:33:26;;;;;;;;;31.50;31.50;;;;;6.07;62.95;103005.22;5055988;28;45588;-76
2023/01/25 09:35:52;;;;;;;;;35.75;31.75;;;;;6.05;62.64;102990.09;5057390;28;45259;-77
2023/01/25 09:38:17;;;;;;;;;32.25;28.75;;;;;6.02;62.58;102993.66;5057547;28;45476;-77
2023/01/25 09:40:56;;;;;;;;;36.75;29.50;;;;;5.84;62.73;102960.59;5055964;28;45367;-78
2023/01/25 09:43:34;;;;;;;;;31.50;27.25;;;;;6.01;63.10;102989.19;5058200;28;45473;-77
2023/01/25 09:46:23;;;;;;;;;23.75;21.25;;;;;6.00;62.69;102984.75;5057675;28;45924;-77
2023/01/25 09:49:01;;;;;;;;;30.00;22.50;;;;;5.95;62.78;102980.28;5059637;28;45431;-77
2023/01/25 09:51:56;;;;;;;;;33.00;23.75;;;;;5.92;62.83;102981.13;5057241;28;45545;-78
2023/01/25 09:54:22;;;;;;;;;22.50;22.50;;;;;5.98;62.67;102999.81;5057752;28;45491;-76
2023/01/25 09:56:50;;;;;;;;;31.25;22.25;;;;;5.97;62.54;102992.69;5057055;28;45239;-77
2023/01/25 09:59:21;;;;;;;;;26.25;23.00;;;;;5.87;62.27;102980.13;5059316;28;45255;-78
2023/01/25 10:01:56;;;;;;;;;31.00;25.25;;;;;5.81;62.13;102964.13;5057180;28;45383;-77
2023/01/25 10:04:25;;;;;;;;;23.50;22.50;;;;;5.90;62.66;102989.97;5036285;28;46183;-77
2023/01/25 10:07:01;;;;;;;;;29.25;26.00;;;;;5.86;62.44;102981.03;5055827;28;46150;-76
2023/01/25 10:09:35;;;;;;;;;26.75;25.25;;;;;5.93;62.13;102998.88;5056610;28;45346;-78
2023/01/25 10:12:16;;;;;;;;;28.00;26.25;;;;;5.71;62.74;102968.47;5056698;28;45240;-78
2023/01/25 10:14:42;;;;;;;;;30.25;26.50;;;;;5.79;62.68;102986.25;5056523;28;45426;-79
2023/01/25 10:17:34;;;;;;;;;24.00;19.25;;;;;5.79;62.78;102986.25;5056567;28;45264;-79
2023/01/25 10:20:08;;;;;;;;;31.00;23.75;;;;;5.84;62.81;103004.09;5056066;28;45370;-77
2023/01/25 10:22:42;;;;;;;;;31.25;24.00;;;;;5.81;62.80;102997.81;5055508;28;45497;-78
2023/01/25 10:25:33;;;;;;;;;26.50;26.25;;;;;5.78;62.92;102995.16;5034889;28;45423;-78
2023/01/25 10:28:08;;;;;;;;;28.25;23.25;;;;;5.83;63.10;102998.75;5045297;28;45537;-82
2023/01/25 10:31:10;;;;;;;;;35.00;31.25;;;;;5.81;63.25;103001.38;5056548;28;45255;-77
2023/01/25 10:33:42;;;;;;;;;31.75;26.25;;;;;5.76;63.13;102984.50;5041038;28;45396;-79
2023/01/25 10:36:13;;;;;;;;;31.75;27.25;;;;;5.83;62.88;103004.06;5056368;28;45347;-79
2023/01/25 10:38:44;;;;;;;;;32.75;25.50;;;;;5.85;62.67;102995.22;5056037;28;46136;-77
2023/01/25 10:41:29;;;;;;;;;36.75;30.25;;;;;5.51;62.78;102931.91;5056458;28;45479;-78
2023/01/25 10:46:40;;;;;;;;;37.50;31.50;;;;;5.79;62.78;102975.63;5056207;28;45418;-78
2023/01/25 10:49:28;;;;;;;;;31.00;28.50;;;;;5.88;63.00;102997.94;5037830;28;47348;-77
2023/01/25 10:51:54;;;;;;;;;35.25;30.25;;;;;5.86;62.93;102982.81;5056008;28;45275;-76
2023/01/25 10:54:21;;;;;;;;;30.25;28.25;;;;;5.88;62.65;102983.72;5037899;28;45288;-78
2023/01/25 10:56:47;;;;;;;;;30.00;29.75;;;;;5.82;62.39;102973.00;5055521;28;45556;-79
2023/01/25 10:59:23;;;;;;;;;32.75;29.50;;;;;5.89;62.45;102978.41;5056363;28;46647;-78
2023/01/25 11:01:49;;;;;;;;;31.25;26.25;;;;;5.88;62.29;102983.72;5047561;28;45390;-77
2023/01/25 11:04:34;;;;;;;;;30.00;26.00;;;;;5.77;62.48;102958.78;5049185;28;45494;-77
2023/01/25 11:07:01;;;;;;;;;34.50;29.75;;;;;5.72;62.45;102946.28;5037251;28;46541;-78
2023/01/25 11:09:37;;;;;;;;;27.50;24.75;;;;;5.86;61.70;102967.72;5055660;28;46122;-78
2023/01/25 11:12:04;;;;;;;;;29.00;26.25;;;;;5.85;62.08;102965.06;5056226;28;45316;-79
2023/01/25 11:14:31;;;;;;;;;25.50;23.75;;;;;5.75;61.83;102949.88;5056662;28;45228;-78
2023/01/25 11:16:59;;;;;;;;;30.25;26.50;;;;;5.80;62.19;102953.44;5052063;28;45524;-79
2023/01/25 11:19:39;;;;;;;;;35.25;30.50;;;;;5.85;62.00;102957.06;5054698;28;46229;-78
2023/01/25 11:22:19;;;;;;;;;31.25;30.75;;;;;5.85;61.84;102957.06;5055195;28;45294;-77
2023/01/25 11:24:45;;;;;;;;;27.25;24.50;;;;;5.80;62.22;102950.78;5037569;28;45458;-78
2023/01/25 11:27:12;;;;;;;;;26.25;25.50;;;;;5.80;62.10;102948.13;5037139;28;45573;-76
2023/01/25 11:29:37;;;;;;;;;37.50;29.50;;;;;5.80;62.27;102946.34;5055216;28;46569;-78
2023/01/25 11:32:19;;;;;;;;;23.75;22.25;;;;;5.74;62.44;102922.38;5054612;28;45410;-75
2023/01/25 11:34:44;;;;;;;;;28.75;23.00;;;;;5.79;62.92;102935.69;5054972;28;45504;-75
2023/01/25 11:37:54;;;;;;;;;33.75;26.00;;;;;5.70;62.82;102916.09;5055288;28;45469;-76
2023/01/25 11:40:36;;;;;;;;;41.25;32.00;;;;;5.56;62.42;102887.59;5055523;28;45373;-75
2023/01/25 11:43:39;;;;;;;;;33.25;31.00;;;;;5.79;62.13;102914.41;5056301;28;45514;-78
2023/01/25 11:46:04;;;;;;;;;40.75;33.75;;;;;5.77;62.41;102911.75;5047446;28;45520;-79
2023/01/25 11:48:32;;;;;;;;;40.75;31.25;;;;;5.77;62.24;102908.19;5056866;28;45335;-77
2023/01/25 11:50:57;;;;;;;;;35.50;30.25;;;;;5.76;62.15;102899.31;5055174;28;46486;-77
2023/01/25 11:53:41;;;;;;;;;34.75;32.00;;;;;5.77;62.05;102897.56;5055376;28;45500;-78
2023/01/25 11:56:36;;;;;;;;;34.00;22.50;;;;;5.67;62.07;102867.31;5055309;28;45326;-77
2023/01/25 11:59:13;;;;;;;;;33.75;27.50;;;;;5.72;62.64;102877.09;5036650;28;46170;-77
2023/01/25 12:02:16;;;;;;;;;42.25;35.75;;;;;5.75;61.98;102870.94;5054213;28;45672;-76
2023/01/25 12:04:47;;;;;;;;;39.25;33.75;;;;;5.79;62.30;102861.16;5052631;28;45418;-79
2023/01/25 12:07:30;;;;;;;;;35.75;33.50;;;;;5.76;61.97;102856.75;5055893;28;45625;-77
2023/01/25 12:10:42;;;;;;;;;36.75;35.25;;;;;5.68;62.34;102831.84;5037979;28;45920;-79
2023/01/25 12:13:30;;;;;;;;;50.50;38.25;;;;;5.67;62.43;102827.41;4955465;28;46314;-77
2023/01/25 12:16:22;;;;;;;;;40.50;39.00;;;;;5.77;62.39;102831.03;5051165;28;45347;-78
2023/01/25 12:19:10;;;;;;;;;38.25;30.25;;;;;5.75;61.98;102823.03;5058641;28;45350;-76
2023/01/25 12:21:57;;;;;;;;;38.50;36.50;;;;;5.76;62.49;102815.94;5059041;28;45363;-77
2023/01/25 12:24:31;;;;;;;;;35.00;29.00;;;;;5.77;62.56;102809.72;5064449;28;45273;-76
2023/01/25 12:27:14;;;;;;;;;49.00;39.00;;;;;5.66;62.28;102794.56;5077041;28;44667;-79
2023/01/25 12:29:48;;;;;;;;;38.00;37.25;;;;;5.74;62.18;102802.59;5075717;28;45219;-77
2023/01/25 12:32:52;;;;;;;;;50.50;38.50;;;;;5.75;62.56;102793.75;5078919;28;44754;-78
2023/01/25 12:35:24;;;;;;;;;42.75;34.50;;;;;5.74;62.56;102788.41;4997315;28;46336;-78
2023/01/25 12:37:57;;;;;;;;;45.75;41.00;;;;;5.69;61.96;102780.41;5050474;28;45490;-77
2023/01/25 12:41:12;;;;;;;;;36.75;32.25;;;;;5.63;62.57;102770.59;5043709;28;45205;-76
2023/01/25 12:44:20;;;;;;;;;36.00;31.75;;;;;5.61;62.33;102759.03;5014798;28;45852;-77
2023/01/25 12:46:58;;;;;;;;;47.25;38.50;;;;;5.66;62.32;102770.63;5054235;28;45361;-78
2023/01/25 12:49:32;;;;;;;;;45.25;41.75;;;;;5.58;62.26;102753.72;5058056;28;45318;-77
2023/01/25 12:52:02;;;;;;;;;51.50;42.50;;;;;5.63;62.41;102756.41;5058475;28;45481;-77
2023/01/25 12:54:39;;;;;;;;;57.25;40.50;;;;;5.66;62.15;102753.75;5058231;28;45327;-78
2023/01/25 12:57:28;;;;;;;;;47.25;38.75;;;;;5.67;62.19;102753.78;5057903;28;45276;-78
2023/01/25 13:00:10;;;;;;;;;36.00;30.75;;;;;5.58;61.92;102729.78;5057395;28;45380;-78
2023/01/25 13:02:51;;;;;;;;;50.75;38.25;;;;;5.64;62.42;102740.44;5054163;28;45550;-77
2023/01/25 13:05:39;;;;;;;;;49.50;39.50;;;;;5.59;62.38;102718.25;5057934;28;45526;-77
2023/01/25 13:08:18;;;;;;;;;45.25;39.00;;;;;5.50;61.71;102711.97;5057603;28;46263;-78
2023/01/25 13:10:51;;;;;;;;;51.67;41.33;;;;;5.39;62.16;102695.06;5058461;28;45236;-77
2023/01/25 13:13:25;;;;;;;;;54.00;43.00;;;;;5.58;62.20;102716.47;5056959;28;45352;-77
2023/01/25 13:15:52;;;;;;;;;50.75;39.25;;;;;5.55;61.78;102707.56;5057837;28;45303;-78
2023/01/25 13:18:23;;;;;;;;;50.50;37.25;;;;;5.57;61.96;102709.38;5057330;28;45674;-79
2023/01/25 13:20:53;;;;;;;;;48.33;41.67;;;;;5.50;62.48;102693.38;5057542;28;45353;-77
2023/01/25 13:23:42;;;;;;;;;59.50;41.00;;;;;5.55;61.79;102703.13;5058007;28;45337;-78
2023/01/25 13:26:19;;;;;;;;;41.25;36.00;;;;;5.61;61.58;102704.97;5057479;28;45215;-78
2023/01/25 13:28:47;;;;;;;;;56.75;43.75;;;;;5.46;61.81;102673.81;5039040;28;47337;-78
2023/01/25 13:31:39;;;;;;;;;49.25;40.00;;;;;5.59;61.55;102696.06;5038916;28;45333;-78
2023/01/25 13:34:26;;;;;;;;;48.75;38.00;;;;;5.59;61.33;102690.75;5047982;28;45481;-78
2023/01/25 13:36:52;;;;;;;;;54.00;40.50;;;;;5.48;61.49;102671.16;5039230;28;45504;-77
2023/01/25 13:39:23;;;;;;;;;47.00;42.50;;;;;5.58;61.21;102686.31;5057543;28;45460;-77
2023/01/25 13:42:12;;;;;;;;;43.50;38.50;;;;;5.54;60.93;102687.16;5057201;28;45552;-78
2023/01/25 13:44:42;;;;;;;;;57.25;39.50;;;;;5.45;61.37;102674.69;5045986;28;45438;-77
2023/01/25 13:47:15;;;;;;;;;47.75;41.25;;;;;5.50;61.82;102686.28;5057405;28;45311;-78
2023/01/25 13:50:06;;;;;;;;;49.00;41.00;;;;;5.47;61.31;102686.25;5056996;28;45255;-77
2023/01/25 13:52:31;;;;;;;;;56.75;42.75;;;;;5.41;61.65;102680.00;5056919;28;45313;-78
2023/01/25 13:54:57;;;;;;;;;49.25;39.25;;;;;5.40;61.27;102678.22;5057529;28;45321;-77
2023/01/25 13:57:25;;;;;;;;;54.25;40.25;;;;;5.41;61.64;102674.69;5057206;28;45251;-77
2023/01/25 14:00:05;;;;;;;;;46.75;38.75;;;;;5.37;60.97;102657.81;5056718;28;45537;-78
2023/01/25 14:02:31;;;;;;;;;41.75;39.50;;;;;5.41;61.21;102658.72;5057191;28;45515;-77
2023/01/25 14:04:57;;;;;;;;;43.00;40.25;;;;;5.40;61.23;102648.97;5038525;28;45417;-78
2023/01/25 14:07:31;;;;;;;;;49.00;40.50;;;;;5.39;61.31;102642.75;5056784;28;45505;-78
2023/01/25 14:10:00;;;;;;;;;50.75;40.75;;;;;5.44;61.25;102659.66;5056976;28;46580;-78
2023/01/25 14:12:39;;;;;;;;;37.50;31.25;;;;;5.39;61.10;102649.84;5038439;28;45391;-81
2023/01/25 14:15:27;;;;;;;;;55.00;43.00;;;;;5.37;61.53;102662.22;5057096;28;45327;-77
2023/01/25 14:18:15;;;;;;;;;57.75;43.25;;;;;5.35;61.16;102662.25;5056206;28;45466;-76
2023/01/25 14:20:41;;;;;;;;;52.00;43.25;;;;;5.33;61.51;102659.56;5056337;28;46070;-77
2023/01/25 14:23:22;;;;;;;;;47.33;39.33;;;;;5.25;62.03;102641.78;5056843;28;45470;-78
2023/01/25 14:25:48;;;;;;;;;56.00;40.67;;;;;5.13;61.50;102618.66;5056551;28;45336;-78
2023/01/25 14:28:14;;;;;;;;;61.00;48.00;;;;;5.09;61.82;102616.88;5035293;28;46279;-79
2023/01/25 14:30:40;;;;;;;;;44.67;40.00;;;;;5.22;61.64;102645.31;5053899;28;45504;-78
2023/01/25 14:33:21;;;;;;;;;54.33;45.00;;;;;5.14;62.23;102659.44;5034788;28;45335;-75
2023/01/25 14:35:49;;;;;;;;;56.00;46.67;;;;;5.12;61.91;102647.88;5056113;28;45390;-80
2023/01/25 14:38:23;;;;;;;;;57.33;45.67;;;;;5.03;62.02;102658.44;5056569;28;45627;-77
2023/01/25 14:40:50;;;;;;;;;61.00;44.33;;;;;4.90;62.93;102645.09;5056322;28;46245;-78
2023/01/25 14:43:16;;;;;;;;;71.67;50.33;;;;;4.99;63.09;102656.66;5056604;28;45345;-76
2023/01/25 14:45:42;;;;;;;;;65.33;47.00;;;;;4.96;62.57;102646.88;5043711;28;45344;-77
2023/01/25 14:48:39;;;;;;;;;68.67;51.00;;;;;4.93;62.53;102639.78;5056205;28;45212;-78
2023/01/25 14:51:11;;;;;;;;;67.00;53.00;;;;;4.73;63.42;102629.88;5034061;28;47039;-78
2023/01/25 14:53:41;;;;;;;;;64.00;51.33;;;;;4.65;63.65;102628.94;5055036;28;45361;-77
2023/01/25 14:56:41;;;;;;;;;60.33;48.00;;;;;4.68;63.14;102645.78;5056604;28;45326;-79
2023/01/25 14:59:22;;;;;;;;;62.67;49.67;;;;;4.56;63.71;102638.59;5037633;28;47358;-76
2023/01/25 15:01:51;;;;;;;;;64.00;47.00;;;;;4.25;64.23;102609.09;5055869;28;45493;-76
2023/01/25 15:04:17;;;;;;;;;66.00;50.33;;;;;4.30;64.75;102644.53;5055770;28;45296;-78
2023/01/25 15:06:51;;;;;;;;;60.33;46.67;;;;;4.36;64.73;102644.59;5037783;28;45279;-77
2023/01/25 15:09:28;;;;;;;;;71.67;46.33;;;;;4.40;64.47;102647.31;5036146;28;47422;-77
2023/01/25 15:12:24;;;;;;;;;57.33;44.33;;;;;4.44;64.06;102635.81;5055759;28;45443;-78
2023/01/25 15:14:51;;;;;;;;;64.00;47.67;;;;;4.40;64.30;102622.50;5055861;28;45395;-78
2023/01/25 15:17:41;;;;;;;;;51.33;44.33;;;;;4.54;64.13;102639.47;5055779;28;45340;-75
2023/01/25 15:20:27;;;;;;;;;63.33;45.67;;;;;4.51;63.90;102639.41;5055574;28;45235;-79
2023/01/25 15:22:54;;;;;;;;;54.00;44.00;;;;;4.42;63.87;102631.41;5039001;28;46120;-78
2023/01/25 15:25:20;;;;;;;;;64.67;47.33;;;;;4.26;64.49;102622.34;5055557;28;45401;-78
2023/01/25 15:27:46;;;;;;;;;67.67;49.00;;;;;4.26;64.53;102634.75;5054500;28;45356;-77
2023/01/25 15:30:15;;;;;;;;;64.33;50.00;;;;;4.38;64.63;102657.00;5055350;28;45524;-77
2023/01/25 15:32:42;;;;;;;;;51.67;45.00;;;;;4.35;64.74;102658.72;5058224;28;45671;-77
2023/01/25 15:35:13;;;;;;;;;67.00;51.67;;;;;4.29;64.76;102661.34;5055510;28;45256;-78
2023/01/25 15:37:38;;;;;;;;;68.67;50.33;;;;;4.16;64.56;102640.00;5055433;28;45355;-77
2023/01/25 15:40:04;;;;;;;;;71.00;51.67;;;;;4.18;65.11;102651.50;5049763;28;45493;-78
2023/01/25 15:42:31;;;;;;;;;67.33;52.67;;;;;3.87;65.40;102625.50;5048922;28;45367;-77
2023/01/25 15:44:57;;;;;;;;;71.67;47.67;;;;;4.09;65.12;102667.31;5043163;28;45292;-78
2023/01/25 15:47:22;;;;;;;;;71.00;50.00;;;;;3.97;66.05;102659.22;5039877;28;45308;-76
2023/01/25 15:49:48;;;;;;;;;65.33;50.33;;;;;4.04;65.86;102662.84;5057285;28;45404;-77
2023/01/25 15:52:14;;;;;;;;;60.67;48.00;;;;;3.98;65.66;102660.13;5056351;28;45908;-77
2023/01/25 15:54:39;;;;;;;;;70.33;52.67;;;;;4.02;65.74;102653.94;5056805;28;45544;-75
2023/01/25 15:57:05;;;;;;;;;56.33;44.00;;;;;4.11;65.43;102654.94;5056568;28;45382;-78
2023/01/25 15:59:31;;;;;;;;;63.33;50.67;;;;;4.07;64.92;102650.50;5037616;28;45567;-75
2023/01/25 16:01:56;;;;;;;;;71.33;55.00;;;;;3.85;65.23;102632.53;5056008;28;45411;-79
2023/01/25 16:04:23;;;;;;;;;72.67;53.00;;;;;3.84;65.55;102656.38;5054775;28;45370;-77
2023/01/25 16:06:51;;;;;;;;;51.67;46.00;;;;;3.78;65.83;102663.41;5034211;28;45310;-77
2023/01/25 16:09:26;;;;;;;;;79.00;53.00;;;;;3.75;65.90;102665.13;5032570;28;46108;-77
2023/01/25 16:11:54;;;;;;;;;68.00;49.00;;;;;3.70;66.62;102654.47;5056282;28;45438;-78
2023/01/25 16:14:22;;;;;;;;;65.67;52.00;;;;;3.76;66.25;102659.84;5055834;28;45386;-76
2023/01/25 16:16:50;;;;;;;;;62.33;49.33;;;;;3.90;65.89;102653.84;5054791;28;45441;-77
2023/01/25 16:19:18;;;;;;;;;74.67;54.33;;;;;4.02;65.99;102659.25;5055421;28;45541;-77
2023/01/25 16:21:44;;;;;;;;;61.67;50.67;;;;;3.99;65.47;102628.28;5056491;28;45289;-76
2023/01/25 16:24:10;;;;;;;;;69.33;53.00;;;;;4.21;64.80;102663.03;5037568;28;45592;-76
2023/01/25 16:26:49;;;;;;;;;48.00;42.67;;;;;4.09;64.91;102643.41;5054709;28;45358;-77
2023/01/25 16:29:14;;;;;;;;;69.33;48.67;;;;;4.09;64.58;102654.03;5056068;28;45482;-76
2023/01/25 16:31:40;;;;;;;;;63.33;45.33;;;;;4.02;64.39;102656.59;5050170;28;45521;-77
2023/01/25 16:34:06;;;;;;;;;64.00;47.33;;;;;3.93;64.05;102654.75;5053857;28;45457;-76
2023/01/25 16:36:33;;;;;;;;;62.67;46.00;;;;;3.78;64.36;102652.78;5036801;28;45329;-77
2023/01/25 16:39:08;;;;;;;;;64.67;52.00;;;;;3.55;65.03;102654.28;5036291;28;47051;-78
2023/01/25 16:41:34;;;;;;;;;62.00;46.33;;;;;3.59;65.05;102664.03;5037721;28;46931;-77
2023/01/25 16:44:00;;;;;;;;;70.33;52.33;;;;;3.59;64.99;102669.34;5055835;28;45421;-76
2023/01/25 16:46:25;;;;;;;;;66.33;48.67;;;;;3.63;65.68;102664.97;5055617;28;45481;-78
2023/01/25 16:48:52;;;;;;;;;67.00;50.33;;;;;3.61;65.04;102650.78;5054401;28;45406;-77
2023/01/25 16:51:22;;;;;;;;;71.33;53.33;;;;;3.60;65.18;102663.16;5054758;28;46686;-76
2023/01/25 16:53:49;;;;;;;;;61.00;48.33;;;;;3.45;65.57;102657.66;5054811;28;45356;-75
2023/01/25 16:56:17;;;;;;;;;70.33;48.33;;;;;3.57;65.54;102680.81;5051350;28;45399;-77
2023/01/25 16:58:43;;;;;;;;;70.00;53.00;;;;;3.51;65.73;102668.34;5031380;28;45363;-77
2023/01/25 17:01:09;;;;;;;;;66.33;52.33;;;;;3.53;65.15;102673.66;5047688;28;45514;-76
2023/01/25 17:03:35;;;;;;;;;66.33;53.33;;;;;3.52;65.49;102672.78;5047704;28;45399;-77
2023/01/25 17:06:03;;;;;;;;;69.33;48.00;;;;;3.52;65.46;102671.88;5053339;28;45395;-77
2023/01/25 17:08:28;;;;;;;;;71.00;52.00;;;;;3.52;65.06;102679.84;5054148;28;45537;-77
2023/01/25 17:10:56;;;;;;;;;72.33;51.67;;;;;3.60;65.01;102684.38;5053069;28;47372;-78
2023/01/25 17:13:22;;;;;;;;;67.00;48.33;;;;;3.63;64.34;102671.19;5054078;28;45444;-77